sensor_id;sensor_type;location;lat;lon;timestamp;P1;durP1;ratioP1;P2;durP2;ratioP2
10430;SDS011;5262;59.958;17.726;2023-04-06T00:00:52;7.20;;;3.97;;
10430;SDS011;5262;59.958;17.726;2023-04-06T00:03:17;4.93;;;3.50;;
10430;SDS011;5262;59.958;17.726;2023-04-06T00:05:43;5.40;;;3.63;;
10430;SDS011;5262;59.958;17.726;2023-04-06T00:08:09;5.80;;;3.07;;
10430;SDS011;5262;59.958;17.726;2023-04-06T00:10:35;5.70;;;3.17;;
10430;SDS011;5262;59.958;17.726;2023-04-06T00:13:01;5.13;;;3.40;;
10430;SDS011;5262;59.958;17.726;2023-04-06T00:15:27;4.47;;;2.50;;
10430;SDS011;5262;59.958;17.726;2023-04-06T00:17:53;3.83;;;2.80;;
10430;SDS011;5262;59.958;17.726;2023-04-06T00:20:20;3.50;;;2.60;;
10430;SDS011;5262;59.958;17.726;2023-04-06T00:22:46;6.80;;;3.40;;
10430;SDS011;5262;59.958;17.726;2023-04-06T00:25:11;4.30;;;3.40;;
10430;SDS011;5262;59.958;17.726;2023-04-06T00:27:37;4.20;;;3.00;;
10430;SDS011;5262;59.958;17.726;2023-04-06T00:30:04;6.70;;;3.10;;
10430;SDS011;5262;59.958;17.726;2023-04-06T00:32:30;7.50;;;3.00;;
10430;SDS011;5262;59.958;17.726;2023-04-06T00:34:56;4.87;;;2.97;;
10430;SDS011;5262;59.958;17.726;2023-04-06T00:37:23;4.87;;;2.93;;
10430;SDS011;5262;59.958;17.726;2023-04-06T00:39:48;4.20;;;2.93;;
10430;SDS011;5262;59.958;17.726;2023-04-06T00:42:16;4.03;;;3.03;;
10430;SDS011;5262;59.958;17.726;2023-04-06T00:44:43;5.83;;;3.00;;
10430;SDS011;5262;59.958;17.726;2023-04-06T00:47:09;4.50;;;2.70;;
10430;SDS011;5262;59.958;17.726;2023-04-06T00:49:34;4.60;;;2.83;;
10430;SDS011;5262;59.958;17.726;2023-04-06T00:52:00;6.13;;;3.10;;
10430;SDS011;5262;59.958;17.726;2023-04-06T00:54:27;11.53;;;3.10;;
10430;SDS011;5262;59.958;17.726;2023-04-06T00:56:54;3.37;;;2.90;;
10430;SDS011;5262;59.958;17.726;2023-04-06T00:59:20;6.60;;;3.47;;
10430;SDS011;5262;59.958;17.726;2023-04-06T01:01:46;4.13;;;2.80;;
10430;SDS011;5262;59.958;17.726;2023-04-06T01:04:12;3.97;;;2.87;;
10430;SDS011;5262;59.958;17.726;2023-04-06T01:06:38;4.30;;;2.73;;
10430;SDS011;5262;59.958;17.726;2023-04-06T01:09:04;9.33;;;3.43;;
10430;SDS011;5262;59.958;17.726;2023-04-06T01:11:32;5.33;;;3.00;;
10430;SDS011;5262;59.958;17.726;2023-04-06T01:13:57;4.60;;;2.63;;
10430;SDS011;5262;59.958;17.726;2023-04-06T01:16:23;5.17;;;3.10;;
10430;SDS011;5262;59.958;17.726;2023-04-06T01:18:49;3.53;;;2.70;;
10430;SDS011;5262;59.958;17.726;2023-04-06T01:21:15;3.53;;;2.77;;
10430;SDS011;5262;59.958;17.726;2023-04-06T01:23:44;4.03;;;2.60;;
10430;SDS011;5262;59.958;17.726;2023-04-06T01:26:13;4.20;;;2.43;;
10430;SDS011;5262;59.958;17.726;2023-04-06T01:28:39;7.10;;;2.33;;
10430;SDS011;5262;59.958;17.726;2023-04-06T01:31:08;5.00;;;2.50;;
10430;SDS011;5262;59.958;17.726;2023-04-06T01:33:34;4.63;;;2.60;;
10430;SDS011;5262;59.958;17.726;2023-04-06T01:36:00;12.57;;;3.10;;
10430;SDS011;5262;59.958;17.726;2023-04-06T01:38:26;5.33;;;2.70;;
10430;SDS011;5262;59.958;17.726;2023-04-06T01:40:52;6.33;;;2.37;;
10430;SDS011;5262;59.958;17.726;2023-04-06T01:43:18;4.73;;;2.17;;
10430;SDS011;5262;59.958;17.726;2023-04-06T01:45:44;2.97;;;2.30;;
10430;SDS011;5262;59.958;17.726;2023-04-06T01:48:09;5.87;;;2.70;;
10430;SDS011;5262;59.958;17.726;2023-04-06T01:50:35;7.97;;;2.67;;
10430;SDS011;5262;59.958;17.726;2023-04-06T01:53:01;3.73;;;2.80;;
10430;SDS011;5262;59.958;17.726;2023-04-06T01:55:26;3.47;;;2.37;;
10430;SDS011;5262;59.958;17.726;2023-04-06T01:57:52;11.10;;;2.93;;
10430;SDS011;5262;59.958;17.726;2023-04-06T02:00:18;5.27;;;2.63;;
10430;SDS011;5262;59.958;17.726;2023-04-06T02:02:43;25.43;;;5.07;;
10430;SDS011;5262;59.958;17.726;2023-04-06T02:05:09;4.43;;;2.90;;
10430;SDS011;5262;59.958;17.726;2023-04-06T02:07:35;3.17;;;2.27;;
10430;SDS011;5262;59.958;17.726;2023-04-06T02:10:01;10.43;;;2.37;;
10430;SDS011;5262;59.958;17.726;2023-04-06T02:12:28;4.17;;;2.47;;
10430;SDS011;5262;59.958;17.726;2023-04-06T02:14:53;6.33;;;2.27;;
10430;SDS011;5262;59.958;17.726;2023-04-06T02:17:19;5.47;;;2.17;;
10430;SDS011;5262;59.958;17.726;2023-04-06T02:19:45;5.70;;;2.37;;
10430;SDS011;5262;59.958;17.726;2023-04-06T02:22:11;2.73;;;1.93;;
10430;SDS011;5262;59.958;17.726;2023-04-06T02:24:36;5.50;;;2.03;;
10430;SDS011;5262;59.958;17.726;2023-04-06T02:27:02;5.57;;;2.10;;
10430;SDS011;5262;59.958;17.726;2023-04-06T02:29:28;7.47;;;2.27;;
10430;SDS011;5262;59.958;17.726;2023-04-06T02:31:53;5.33;;;2.10;;
10430;SDS011;5262;59.958;17.726;2023-04-06T02:34:19;3.37;;;1.67;;
10430;SDS011;5262;59.958;17.726;2023-04-06T02:36:45;11.87;;;2.10;;
10430;SDS011;5262;59.958;17.726;2023-04-06T02:39:11;3.60;;;1.93;;
10430;SDS011;5262;59.958;17.726;2023-04-06T02:41:38;3.67;;;2.17;;
10430;SDS011;5262;59.958;17.726;2023-04-06T02:44:03;10.10;;;2.33;;
10430;SDS011;5262;59.958;17.726;2023-04-06T02:46:31;9.33;;;2.57;;
10430;SDS011;5262;59.958;17.726;2023-04-06T02:48:56;5.93;;;2.73;;
10430;SDS011;5262;59.958;17.726;2023-04-06T02:51:25;2.73;;;2.10;;
10430;SDS011;5262;59.958;17.726;2023-04-06T02:53:51;2.40;;;2.20;;
10430;SDS011;5262;59.958;17.726;2023-04-06T02:56:17;2.53;;;1.70;;
10430;SDS011;5262;59.958;17.726;2023-04-06T02:58:42;3.77;;;2.07;;
10430;SDS011;5262;59.958;17.726;2023-04-06T03:01:08;2.53;;;1.97;;
10430;SDS011;5262;59.958;17.726;2023-04-06T03:03:34;1.80;;;1.60;;
10430;SDS011;5262;59.958;17.726;2023-04-06T03:05:59;2.40;;;1.80;;
10430;SDS011;5262;59.958;17.726;2023-04-06T03:08:25;2.00;;;1.70;;
10430;SDS011;5262;59.958;17.726;2023-04-06T03:10:51;3.07;;;2.30;;
10430;SDS011;5262;59.958;17.726;2023-04-06T03:13:16;2.77;;;2.07;;
10430;SDS011;5262;59.958;17.726;2023-04-06T03:15:42;3.93;;;2.43;;
10430;SDS011;5262;59.958;17.726;2023-04-06T03:18:07;8.93;;;2.60;;
10430;SDS011;5262;59.958;17.726;2023-04-06T03:20:33;3.67;;;2.47;;
10430;SDS011;5262;59.958;17.726;2023-04-06T03:22:58;4.50;;;2.03;;
10430;SDS011;5262;59.958;17.726;2023-04-06T03:25:24;2.10;;;1.90;;
10430;SDS011;5262;59.958;17.726;2023-04-06T03:27:50;6.53;;;2.10;;
10430;SDS011;5262;59.958;17.726;2023-04-06T03:30:15;4.63;;;2.37;;
10430;SDS011;5262;59.958;17.726;2023-04-06T03:32:43;2.37;;;2.03;;
10430;SDS011;5262;59.958;17.726;2023-04-06T03:35:11;2.50;;;2.13;;
10430;SDS011;5262;59.958;17.726;2023-04-06T03:37:37;3.77;;;2.43;;
10430;SDS011;5262;59.958;17.726;2023-04-06T03:40:03;3.17;;;2.13;;
10430;SDS011;5262;59.958;17.726;2023-04-06T03:42:29;3.57;;;2.23;;
10430;SDS011;5262;59.958;17.726;2023-04-06T03:44:56;3.37;;;2.40;;
10430;SDS011;5262;59.958;17.726;2023-04-06T03:47:21;3.03;;;2.13;;
10430;SDS011;5262;59.958;17.726;2023-04-06T03:49:47;3.33;;;2.53;;
10430;SDS011;5262;59.958;17.726;2023-04-06T03:52:13;3.50;;;2.50;;
10430;SDS011;5262;59.958;17.726;2023-04-06T03:54:38;3.60;;;2.47;;
10430;SDS011;5262;59.958;17.726;2023-04-06T03:57:04;3.47;;;2.50;;
10430;SDS011;5262;59.958;17.726;2023-04-06T03:59:30;2.87;;;2.40;;
10430;SDS011;5262;59.958;17.726;2023-04-06T04:01:55;2.73;;;2.40;;
10430;SDS011;5262;59.958;17.726;2023-04-06T04:04:21;4.13;;;2.40;;
10430;SDS011;5262;59.958;17.726;2023-04-06T04:06:47;4.27;;;2.30;;
10430;SDS011;5262;59.958;17.726;2023-04-06T04:09:12;3.47;;;2.57;;
10430;SDS011;5262;59.958;17.726;2023-04-06T04:11:38;2.90;;;2.20;;
10430;SDS011;5262;59.958;17.726;2023-04-06T04:14:04;4.37;;;2.33;;
10430;SDS011;5262;59.958;17.726;2023-04-06T04:16:29;3.80;;;2.10;;
10430;SDS011;5262;59.958;17.726;2023-04-06T04:18:55;2.50;;;2.17;;
10430;SDS011;5262;59.958;17.726;2023-04-06T04:21:23;3.87;;;2.40;;
10430;SDS011;5262;59.958;17.726;2023-04-06T04:23:48;3.57;;;2.03;;
10430;SDS011;5262;59.958;17.726;2023-04-06T04:26:14;3.10;;;2.63;;
10430;SDS011;5262;59.958;17.726;2023-04-06T04:28:40;2.50;;;1.93;;
10430;SDS011;5262;59.958;17.726;2023-04-06T04:31:05;3.43;;;2.30;;
10430;SDS011;5262;59.958;17.726;2023-04-06T04:33:31;3.33;;;2.00;;
10430;SDS011;5262;59.958;17.726;2023-04-06T04:35:57;3.13;;;2.30;;
10430;SDS011;5262;59.958;17.726;2023-04-06T04:38:22;3.23;;;2.20;;
10430;SDS011;5262;59.958;17.726;2023-04-06T04:40:48;4.37;;;2.50;;
10430;SDS011;5262;59.958;17.726;2023-04-06T04:43:13;2.60;;;2.20;;
10430;SDS011;5262;59.958;17.726;2023-04-06T04:45:39;4.43;;;2.60;;
10430;SDS011;5262;59.958;17.726;2023-04-06T04:48:05;2.90;;;2.40;;
10430;SDS011;5262;59.958;17.726;2023-04-06T04:50:32;3.43;;;2.40;;
10430;SDS011;5262;59.958;17.726;2023-04-06T04:52:58;3.50;;;2.40;;
10430;SDS011;5262;59.958;17.726;2023-04-06T04:55:23;2.97;;;2.30;;
10430;SDS011;5262;59.958;17.726;2023-04-06T04:57:49;2.87;;;2.57;;
10430;SDS011;5262;59.958;17.726;2023-04-06T05:00:15;3.67;;;2.70;;
10430;SDS011;5262;59.958;17.726;2023-04-06T05:02:41;4.07;;;2.80;;
10430;SDS011;5262;59.958;17.726;2023-04-06T05:05:06;4.40;;;2.40;;
10430;SDS011;5262;59.958;17.726;2023-04-06T05:07:32;3.57;;;2.83;;
10430;SDS011;5262;59.958;17.726;2023-04-06T05:09:58;4.17;;;2.43;;
10430;SDS011;5262;59.958;17.726;2023-04-06T05:12:28;3.13;;;2.20;;
10430;SDS011;5262;59.958;17.726;2023-04-06T05:14:54;3.17;;;2.60;;
10430;SDS011;5262;59.958;17.726;2023-04-06T05:17:22;3.37;;;2.63;;
10430;SDS011;5262;59.958;17.726;2023-04-06T05:19:48;3.10;;;2.20;;
10430;SDS011;5262;59.958;17.726;2023-04-06T05:22:14;3.83;;;2.53;;
10430;SDS011;5262;59.958;17.726;2023-04-06T05:24:42;3.17;;;2.77;;
10430;SDS011;5262;59.958;17.726;2023-04-06T05:27:08;3.70;;;2.73;;
10430;SDS011;5262;59.958;17.726;2023-04-06T05:29:34;3.27;;;2.47;;
10430;SDS011;5262;59.958;17.726;2023-04-06T05:32:00;4.80;;;2.93;;
10430;SDS011;5262;59.958;17.726;2023-04-06T05:34:26;4.47;;;2.90;;
10430;SDS011;5262;59.958;17.726;2023-04-06T05:36:52;3.53;;;2.43;;
10430;SDS011;5262;59.958;17.726;2023-04-06T05:39:17;3.27;;;2.43;;
10430;SDS011;5262;59.958;17.726;2023-04-06T05:41:43;5.30;;;3.37;;
10430;SDS011;5262;59.958;17.726;2023-04-06T05:44:08;3.47;;;2.73;;
10430;SDS011;5262;59.958;17.726;2023-04-06T05:46:34;3.87;;;2.73;;
10430;SDS011;5262;59.958;17.726;2023-04-06T05:49:00;4.13;;;2.87;;
10430;SDS011;5262;59.958;17.726;2023-04-06T05:51:25;3.00;;;2.70;;
10430;SDS011;5262;59.958;17.726;2023-04-06T05:53:52;3.90;;;2.90;;
10430;SDS011;5262;59.958;17.726;2023-04-06T05:56:17;3.70;;;2.83;;
10430;SDS011;5262;59.958;17.726;2023-04-06T05:58:43;2.87;;;2.57;;
10430;SDS011;5262;59.958;17.726;2023-04-06T06:01:09;3.13;;;2.40;;
10430;SDS011;5262;59.958;17.726;2023-04-06T06:03:35;6.13;;;2.80;;
10430;SDS011;5262;59.958;17.726;2023-04-06T06:06:01;3.53;;;2.70;;
10430;SDS011;5262;59.958;17.726;2023-04-06T06:08:27;3.77;;;2.77;;
10430;SDS011;5262;59.958;17.726;2023-04-06T06:10:53;2.97;;;2.53;;
10430;SDS011;5262;59.958;17.726;2023-04-06T06:13:19;3.83;;;2.83;;
10430;SDS011;5262;59.958;17.726;2023-04-06T06:15:45;3.37;;;2.60;;
10430;SDS011;5262;59.958;17.726;2023-04-06T06:18:11;3.63;;;2.73;;
10430;SDS011;5262;59.958;17.726;2023-04-06T06:20:36;3.43;;;2.70;;
10430;SDS011;5262;59.958;17.726;2023-04-06T06:23:02;3.07;;;2.20;;
10430;SDS011;5262;59.958;17.726;2023-04-06T06:25:28;4.33;;;2.87;;
10430;SDS011;5262;59.958;17.726;2023-04-06T06:27:55;4.20;;;2.97;;
10430;SDS011;5262;59.958;17.726;2023-04-06T06:30:21;2.93;;;2.53;;
10430;SDS011;5262;59.958;17.726;2023-04-06T06:32:47;4.17;;;3.00;;
10430;SDS011;5262;59.958;17.726;2023-04-06T06:35:13;3.57;;;2.60;;
10430;SDS011;5262;59.958;17.726;2023-04-06T06:37:39;4.50;;;3.00;;
10430;SDS011;5262;59.958;17.726;2023-04-06T06:40:05;3.50;;;2.83;;
10430;SDS011;5262;59.958;17.726;2023-04-06T06:42:31;4.07;;;3.03;;
10430;SDS011;5262;59.958;17.726;2023-04-06T06:44:56;3.73;;;2.43;;
10430;SDS011;5262;59.958;17.726;2023-04-06T06:47:22;4.27;;;2.77;;
10430;SDS011;5262;59.958;17.726;2023-04-06T06:49:48;3.00;;;2.27;;
10430;SDS011;5262;59.958;17.726;2023-04-06T06:52:13;3.03;;;2.47;;
10430;SDS011;5262;59.958;17.726;2023-04-06T06:54:39;4.53;;;3.00;;
10430;SDS011;5262;59.958;17.726;2023-04-06T06:57:05;2.83;;;2.43;;
10430;SDS011;5262;59.958;17.726;2023-04-06T06:59:30;4.07;;;2.67;;
10430;SDS011;5262;59.958;17.726;2023-04-06T07:01:56;3.20;;;2.50;;
10430;SDS011;5262;59.958;17.726;2023-04-06T07:04:22;2.60;;;2.20;;
10430;SDS011;5262;59.958;17.726;2023-04-06T07:06:47;3.40;;;2.17;;
10430;SDS011;5262;59.958;17.726;2023-04-06T07:09:13;3.40;;;2.27;;
10430;SDS011;5262;59.958;17.726;2023-04-06T07:11:38;2.97;;;2.47;;
10430;SDS011;5262;59.958;17.726;2023-04-06T07:14:04;2.77;;;2.30;;
10430;SDS011;5262;59.958;17.726;2023-04-06T07:16:30;3.97;;;3.13;;
10430;SDS011;5262;59.958;17.726;2023-04-06T07:18:55;3.30;;;2.57;;
10430;SDS011;5262;59.958;17.726;2023-04-06T07:21:21;4.17;;;2.20;;
10430;SDS011;5262;59.958;17.726;2023-04-06T07:23:47;3.50;;;2.20;;
10430;SDS011;5262;59.958;17.726;2023-04-06T07:26:13;2.20;;;2.00;;
10430;SDS011;5262;59.958;17.726;2023-04-06T07:28:39;2.00;;;1.70;;
10430;SDS011;5262;59.958;17.726;2023-04-06T07:31:04;1.83;;;1.63;;
10430;SDS011;5262;59.958;17.726;2023-04-06T07:33:30;2.17;;;1.90;;
10430;SDS011;5262;59.958;17.726;2023-04-06T07:35:56;1.60;;;1.40;;
10430;SDS011;5262;59.958;17.726;2023-04-06T07:38:23;2.27;;;1.40;;
10430;SDS011;5262;59.958;17.726;2023-04-06T07:40:49;1.77;;;1.43;;
10430;SDS011;5262;59.958;17.726;2023-04-06T07:43:15;2.30;;;1.87;;
10430;SDS011;5262;59.958;17.726;2023-04-06T07:45:41;2.63;;;1.50;;
10430;SDS011;5262;59.958;17.726;2023-04-06T07:48:07;1.87;;;1.40;;
10430;SDS011;5262;59.958;17.726;2023-04-06T07:50:32;2.23;;;1.40;;
10430;SDS011;5262;59.958;17.726;2023-04-06T07:52:58;2.20;;;1.70;;
10430;SDS011;5262;59.958;17.726;2023-04-06T07:55:24;2.50;;;1.60;;
10430;SDS011;5262;59.958;17.726;2023-04-06T07:57:50;1.77;;;1.57;;
10430;SDS011;5262;59.958;17.726;2023-04-06T08:00:16;1.40;;;1.30;;
10430;SDS011;5262;59.958;17.726;2023-04-06T08:02:42;1.90;;;1.60;;
10430;SDS011;5262;59.958;17.726;2023-04-06T08:05:08;2.43;;;1.73;;
10430;SDS011;5262;59.958;17.726;2023-04-06T08:07:34;2.37;;;1.77;;
10430;SDS011;5262;59.958;17.726;2023-04-06T08:10:00;1.83;;;1.50;;
10430;SDS011;5262;59.958;17.726;2023-04-06T08:12:26;2.07;;;1.60;;
10430;SDS011;5262;59.958;17.726;2023-04-06T08:14:52;1.73;;;1.60;;
10430;SDS011;5262;59.958;17.726;2023-04-06T08:17:18;2.33;;;1.70;;
10430;SDS011;5262;59.958;17.726;2023-04-06T08:19:43;2.50;;;1.60;;
10430;SDS011;5262;59.958;17.726;2023-04-06T08:22:09;1.90;;;1.70;;
10430;SDS011;5262;59.958;17.726;2023-04-06T08:24:35;2.17;;;1.77;;
10430;SDS011;5262;59.958;17.726;2023-04-06T08:27:01;2.10;;;1.70;;
10430;SDS011;5262;59.958;17.726;2023-04-06T08:29:27;2.50;;;1.70;;
10430;SDS011;5262;59.958;17.726;2023-04-06T08:31:52;1.80;;;1.60;;
10430;SDS011;5262;59.958;17.726;2023-04-06T08:34:18;2.60;;;1.90;;
10430;SDS011;5262;59.958;17.726;2023-04-06T08:36:43;1.70;;;1.60;;
10430;SDS011;5262;59.958;17.726;2023-04-06T08:39:10;1.90;;;1.63;;
10430;SDS011;5262;59.958;17.726;2023-04-06T08:41:36;1.83;;;1.60;;
10430;SDS011;5262;59.958;17.726;2023-04-06T08:44:02;2.30;;;1.90;;
10430;SDS011;5262;59.958;17.726;2023-04-06T08:46:29;1.97;;;1.60;;
10430;SDS011;5262;59.958;17.726;2023-04-06T08:48:56;2.87;;;1.70;;
10430;SDS011;5262;59.958;17.726;2023-04-06T08:51:26;2.53;;;1.90;;
10430;SDS011;5262;59.958;17.726;2023-04-06T08:53:53;2.17;;;1.70;;
10430;SDS011;5262;59.958;17.726;2023-04-06T08:56:26;1.90;;;1.50;;
10430;SDS011;5262;59.958;17.726;2023-04-06T08:58:53;2.00;;;1.80;;
10430;SDS011;5262;59.958;17.726;2023-04-06T09:01:23;2.07;;;1.50;;
10430;SDS011;5262;59.958;17.726;2023-04-06T09:03:52;1.87;;;1.60;;
10430;SDS011;5262;59.958;17.726;2023-04-06T09:06:22;2.53;;;1.57;;
10430;SDS011;5262;59.958;17.726;2023-04-06T09:08:48;2.40;;;1.57;;
10430;SDS011;5262;59.958;17.726;2023-04-06T09:11:14;1.60;;;1.47;;
10430;SDS011;5262;59.958;17.726;2023-04-06T09:16:14;1.77;;;1.63;;
10430;SDS011;5262;59.958;17.726;2023-04-06T09:18:40;1.97;;;1.60;;
10430;SDS011;5262;59.958;17.726;2023-04-06T09:21:07;1.90;;;1.50;;
10430;SDS011;5262;59.958;17.726;2023-04-06T09:23:33;1.63;;;1.40;;
10430;SDS011;5262;59.958;17.726;2023-04-06T09:26:05;1.83;;;1.50;;
10430;SDS011;5262;59.958;17.726;2023-04-06T09:31:21;1.83;;;1.73;;
10430;SDS011;5262;59.958;17.726;2023-04-06T09:33:48;2.23;;;1.40;;
10430;SDS011;5262;59.958;17.726;2023-04-06T09:36:14;1.50;;;1.40;;
10430;SDS011;5262;59.958;17.726;2023-04-06T09:38:53;2.23;;;1.60;;
10430;SDS011;5262;59.958;17.726;2023-04-06T09:46:37;1.30;;;1.20;;
10430;SDS011;5262;59.958;17.726;2023-04-06T09:49:07;1.65;;;1.50;;
10430;SDS011;5262;59.958;17.726;2023-04-06T09:54:03;2.00;;;1.05;;
10430;SDS011;5262;59.958;17.726;2023-04-06T09:56:37;1.33;;;1.23;;
10430;SDS011;5262;59.958;17.726;2023-04-06T09:59:12;1.40;;;1.17;;
10430;SDS011;5262;59.958;17.726;2023-04-06T10:01:43;1.63;;;1.20;;
10430;SDS011;5262;59.958;17.726;2023-04-06T10:06:58;1.20;;;1.10;;
10430;SDS011;5262;59.958;17.726;2023-04-06T10:09:25;1.60;;;1.20;;
10430;SDS011;5262;59.958;17.726;2023-04-06T10:12:00;1.10;;;1.00;;
10430;SDS011;5262;59.958;17.726;2023-04-06T10:14:31;1.70;;;1.23;;
10430;SDS011;5262;59.958;17.726;2023-04-06T10:17:02;1.25;;;1.15;;
10430;SDS011;5262;59.958;17.726;2023-04-06T10:19:30;1.93;;;1.20;;
10430;SDS011;5262;59.958;17.726;2023-04-06T10:22:03;1.63;;;1.23;;
10430;SDS011;5262;59.958;17.726;2023-04-06T10:24:30;1.30;;;1.20;;
10430;SDS011;5262;59.958;17.726;2023-04-06T10:26:57;1.10;;;0.93;;
10430;SDS011;5262;59.958;17.726;2023-04-06T10:29:23;2.63;;;1.20;;
10430;SDS011;5262;59.958;17.726;2023-04-06T10:31:49;1.33;;;1.10;;
10430;SDS011;5262;59.958;17.726;2023-04-06T10:34:15;1.17;;;1.07;;
10430;SDS011;5262;59.958;17.726;2023-04-06T10:36:40;1.43;;;0.93;;
10430;SDS011;5262;59.958;17.726;2023-04-06T10:39:06;1.20;;;0.90;;
10430;SDS011;5262;59.958;17.726;2023-04-06T10:41:32;1.10;;;0.97;;
10430;SDS011;5262;59.958;17.726;2023-04-06T10:43:58;3.47;;;0.90;;
10430;SDS011;5262;59.958;17.726;2023-04-06T10:46:28;1.07;;;0.87;;
10430;SDS011;5262;59.958;17.726;2023-04-06T10:48:55;1.77;;;0.90;;
10430;SDS011;5262;59.958;17.726;2023-04-06T10:51:25;1.33;;;1.10;;
10430;SDS011;5262;59.958;17.726;2023-04-06T10:53:53;1.23;;;0.73;;
10430;SDS011;5262;59.958;17.726;2023-04-06T10:56:23;1.37;;;0.80;;
10430;SDS011;5262;59.958;17.726;2023-04-06T10:58:53;0.97;;;0.80;;
10430;SDS011;5262;59.958;17.726;2023-04-06T11:01:21;1.43;;;0.90;;
10430;SDS011;5262;59.958;17.726;2023-04-06T11:03:48;1.00;;;0.90;;
10430;SDS011;5262;59.958;17.726;2023-04-06T11:06:22;1.23;;;0.70;;
10430;SDS011;5262;59.958;17.726;2023-04-06T11:08:49;1.40;;;0.90;;
10430;SDS011;5262;59.958;17.726;2023-04-06T11:11:16;1.10;;;0.80;;
10430;SDS011;5262;59.958;17.726;2023-04-06T11:13:48;1.90;;;0.80;;
10430;SDS011;5262;59.958;17.726;2023-04-06T11:16:19;1.30;;;0.80;;
10430;SDS011;5262;59.958;17.726;2023-04-06T11:18:47;1.10;;;1.00;;
10430;SDS011;5262;59.958;17.726;2023-04-06T11:21:15;1.90;;;0.90;;
10430;SDS011;5262;59.958;17.726;2023-04-06T11:23:41;2.23;;;1.00;;
10430;SDS011;5262;59.958;17.726;2023-04-06T11:26:10;1.37;;;0.90;;
10430;SDS011;5262;59.958;17.726;2023-04-06T11:28:37;1.40;;;0.90;;
10430;SDS011;5262;59.958;17.726;2023-04-06T11:31:02;2.43;;;0.97;;
10430;SDS011;5262;59.958;17.726;2023-04-06T11:33:28;1.10;;;0.77;;
10430;SDS011;5262;59.958;17.726;2023-04-06T11:35:58;1.30;;;1.00;;
10430;SDS011;5262;59.958;17.726;2023-04-06T11:38:24;1.50;;;1.03;;
10430;SDS011;5262;59.958;17.726;2023-04-06T11:40:52;1.50;;;0.93;;
10430;SDS011;5262;59.958;17.726;2023-04-06T11:43:25;1.00;;;0.90;;
10430;SDS011;5262;59.958;17.726;2023-04-06T11:45:58;2.50;;;1.20;;
10430;SDS011;5262;59.958;17.726;2023-04-06T11:48:28;0.90;;;0.80;;
10430;SDS011;5262;59.958;17.726;2023-04-06T11:50:55;1.60;;;1.10;;
10430;SDS011;5262;59.958;17.726;2023-04-06T11:53:22;1.97;;;0.90;;
10430;SDS011;5262;59.958;17.726;2023-04-06T11:55:48;1.13;;;0.80;;
10430;SDS011;5262;59.958;17.726;2023-04-06T11:58:14;3.00;;;0.90;;
10430;SDS011;5262;59.958;17.726;2023-04-06T12:00:40;1.30;;;1.00;;
10430;SDS011;5262;59.958;17.726;2023-04-06T12:03:10;1.10;;;0.93;;
10430;SDS011;5262;59.958;17.726;2023-04-06T12:05:36;1.20;;;1.10;;
10430;SDS011;5262;59.958;17.726;2023-04-06T12:08:02;1.90;;;0.90;;
10430;SDS011;5262;59.958;17.726;2023-04-06T12:10:28;1.60;;;0.97;;
10430;SDS011;5262;59.958;17.726;2023-04-06T12:12:54;1.50;;;0.90;;
10430;SDS011;5262;59.958;17.726;2023-04-06T12:15:20;2.00;;;1.10;;
10430;SDS011;5262;59.958;17.726;2023-04-06T12:17:45;1.27;;;0.80;;
10430;SDS011;5262;59.958;17.726;2023-04-06T12:20:11;1.53;;;0.90;;
10430;SDS011;5262;59.958;17.726;2023-04-06T12:22:37;1.67;;;1.20;;
10430;SDS011;5262;59.958;17.726;2023-04-06T12:25:02;1.30;;;0.87;;
10430;SDS011;5262;59.958;17.726;2023-04-06T12:27:28;0.80;;;0.70;;
10430;SDS011;5262;59.958;17.726;2023-04-06T12:29:54;1.47;;;0.90;;
10430;SDS011;5262;59.958;17.726;2023-04-06T12:32:20;2.03;;;1.00;;
10430;SDS011;5262;59.958;17.726;2023-04-06T12:34:46;1.27;;;0.90;;
10430;SDS011;5262;59.958;17.726;2023-04-06T12:37:12;1.00;;;0.90;;
10430;SDS011;5262;59.958;17.726;2023-04-06T12:39:37;1.13;;;1.00;;
10430;SDS011;5262;59.958;17.726;2023-04-06T12:42:03;1.33;;;1.00;;
10430;SDS011;5262;59.958;17.726;2023-04-06T12:44:29;1.23;;;1.03;;
10430;SDS011;5262;59.958;17.726;2023-04-06T12:46:55;1.00;;;0.90;;
10430;SDS011;5262;59.958;17.726;2023-04-06T12:49:21;1.77;;;1.00;;
10430;SDS011;5262;59.958;17.726;2023-04-06T12:51:46;1.10;;;0.90;;
10430;SDS011;5262;59.958;17.726;2023-04-06T12:54:12;1.37;;;1.00;;
10430;SDS011;5262;59.958;17.726;2023-04-06T12:56:38;1.00;;;0.93;;
10430;SDS011;5262;59.958;17.726;2023-04-06T12:59:03;1.20;;;1.00;;
10430;SDS011;5262;59.958;17.726;2023-04-06T13:01:30;0.80;;;0.80;;
10430;SDS011;5262;59.958;17.726;2023-04-06T13:03:56;1.50;;;1.07;;
10430;SDS011;5262;59.958;17.726;2023-04-06T13:06:22;1.07;;;0.97;;
10430;SDS011;5262;59.958;17.726;2023-04-06T13:08:52;1.00;;;0.90;;
10430;SDS011;5262;59.958;17.726;2023-04-06T13:11:18;1.70;;;1.20;;
10430;SDS011;5262;59.958;17.726;2023-04-06T13:13:45;1.57;;;1.00;;
10430;SDS011;5262;59.958;17.726;2023-04-06T13:16:11;2.90;;;1.10;;
10430;SDS011;5262;59.958;17.726;2023-04-06T13:18:36;1.40;;;1.20;;
10430;SDS011;5262;59.958;17.726;2023-04-06T13:21:04;1.37;;;1.27;;
10430;SDS011;5262;59.958;17.726;2023-04-06T13:23:30;1.30;;;0.90;;
10430;SDS011;5262;59.958;17.726;2023-04-06T13:26:03;1.20;;;1.10;;
10430;SDS011;5262;59.958;17.726;2023-04-06T13:28:30;1.20;;;1.10;;
10430;SDS011;5262;59.958;17.726;2023-04-06T13:30:58;2.10;;;0.93;;
10430;SDS011;5262;59.958;17.726;2023-04-06T13:33:24;1.70;;;1.10;;
10430;SDS011;5262;59.958;17.726;2023-04-06T13:35:51;0.97;;;0.90;;
10430;SDS011;5262;59.958;17.726;2023-04-06T13:38:17;1.10;;;0.97;;
10430;SDS011;5262;59.958;17.726;2023-04-06T13:40:42;1.10;;;1.00;;
10430;SDS011;5262;59.958;17.726;2023-04-06T13:43:09;1.33;;;1.13;;
10430;SDS011;5262;59.958;17.726;2023-04-06T13:45:35;1.20;;;1.03;;
10430;SDS011;5262;59.958;17.726;2023-04-06T13:48:01;1.10;;;1.00;;
10430;SDS011;5262;59.958;17.726;2023-04-06T13:50:27;1.37;;;1.17;;
10430;SDS011;5262;59.958;17.726;2023-04-06T13:52:53;1.13;;;0.97;;
10430;SDS011;5262;59.958;17.726;2023-04-06T13:55:19;0.90;;;0.90;;
10430;SDS011;5262;59.958;17.726;2023-04-06T13:57:45;1.17;;;1.07;;
10430;SDS011;5262;59.958;17.726;2023-04-06T14:00:11;2.60;;;1.30;;
10430;SDS011;5262;59.958;17.726;2023-04-06T14:02:38;1.53;;;1.27;;
10430;SDS011;5262;59.958;17.726;2023-04-06T14:05:04;1.83;;;1.20;;
10430;SDS011;5262;59.958;17.726;2023-04-06T14:07:30;1.60;;;1.43;;
10430;SDS011;5262;59.958;17.726;2023-04-06T14:09:56;3.07;;;1.30;;
10430;SDS011;5262;59.958;17.726;2023-04-06T14:12:22;1.70;;;1.17;;
10430;SDS011;5262;59.958;17.726;2023-04-06T14:14:47;1.90;;;1.20;;
10430;SDS011;5262;59.958;17.726;2023-04-06T14:17:13;1.30;;;1.20;;
10430;SDS011;5262;59.958;17.726;2023-04-06T14:19:38;1.70;;;1.30;;
10430;SDS011;5262;59.958;17.726;2023-04-06T14:22:04;1.53;;;1.20;;
10430;SDS011;5262;59.958;17.726;2023-04-06T14:24:30;2.33;;;1.20;;
10430;SDS011;5262;59.958;17.726;2023-04-06T14:26:56;2.03;;;1.20;;
10430;SDS011;5262;59.958;17.726;2023-04-06T14:29:22;1.40;;;1.10;;
10430;SDS011;5262;59.958;17.726;2023-04-06T14:31:48;1.53;;;1.27;;
10430;SDS011;5262;59.958;17.726;2023-04-06T14:34:14;1.33;;;1.23;;
10430;SDS011;5262;59.958;17.726;2023-04-06T14:36:41;1.73;;;1.50;;
10430;SDS011;5262;59.958;17.726;2023-04-06T14:39:07;1.70;;;1.50;;
10430;SDS011;5262;59.958;17.726;2023-04-06T14:41:34;1.80;;;1.43;;
10430;SDS011;5262;59.958;17.726;2023-04-06T14:44:00;1.40;;;1.30;;
10430;SDS011;5262;59.958;17.726;2023-04-06T14:46:26;1.27;;;1.17;;
10430;SDS011;5262;59.958;17.726;2023-04-06T14:48:58;1.57;;;1.40;;
10430;SDS011;5262;59.958;17.726;2023-04-06T14:51:24;1.70;;;1.50;;
10430;SDS011;5262;59.958;17.726;2023-04-06T14:53:52;2.53;;;1.10;;
10430;SDS011;5262;59.958;17.726;2023-04-06T14:56:18;1.30;;;1.00;;
10430;SDS011;5262;59.958;17.726;2023-04-06T14:58:46;1.73;;;1.20;;